sensor_id;sensor_type;location;lat;lon;timestamp;P1;durP1;ratioP1;P2;durP2;ratioP2
80229;SDS011;69540;42.136;24.742;2024-01-10T00:01:22;4.07;;;3.67;;
80229;SDS011;69540;42.136;24.742;2024-01-10T00:03:51;4.47;;;4.03;;
80229;SDS011;69540;42.136;24.742;2024-01-10T00:06:20;4.82;;;4.22;;
80229;SDS011;69540;42.136;24.742;2024-01-10T00:08:46;4.35;;;3.95;;
80229;SDS011;69540;42.136;24.742;2024-01-10T00:11:12;4.18;;;3.78;;
80229;SDS011;69540;42.136;24.742;2024-01-10T00:13:37;4.00;;;3.60;;
80229;SDS011;69540;42.136;24.742;2024-01-10T00:16:04;4.57;;;4.18;;
80229;SDS011;69540;42.136;24.742;2024-01-10T00:18:30;5.00;;;4.00;;
80229;SDS011;69540;42.136;24.742;2024-01-10T00:20:56;4.40;;;4.00;;
80229;SDS011;69540;42.136;24.742;2024-01-10T00:23:23;4.50;;;3.83;;
80229;SDS011;69540;42.136;24.742;2024-01-10T00:25:48;4.43;;;4.03;;
80229;SDS011;69540;42.136;24.742;2024-01-10T00:28:14;3.85;;;3.55;;
80229;SDS011;69540;42.136;24.742;2024-01-10T00:30:43;4.20;;;3.80;;
80229;SDS011;69540;42.136;24.742;2024-01-10T00:33:10;4.65;;;4.03;;
80229;SDS011;69540;42.136;24.742;2024-01-10T00:35:36;4.43;;;4.03;;
80229;SDS011;69540;42.136;24.742;2024-01-10T00:38:02;3.60;;;3.30;;
80229;SDS011;69540;42.136;24.742;2024-01-10T00:40:28;4.13;;;3.75;;
80229;SDS011;69540;42.136;24.742;2024-01-10T00:42:53;4.40;;;4.00;;
80229;SDS011;69540;42.136;24.742;2024-01-10T00:45:19;4.10;;;3.70;;
80229;SDS011;69540;42.136;24.742;2024-01-10T00:47:45;4.35;;;3.95;;
80229;SDS011;69540;42.136;24.742;2024-01-10T00:50:13;4.30;;;3.90;;
80229;SDS011;69540;42.136;24.742;2024-01-10T00:52:38;3.95;;;3.47;;
80229;SDS011;69540;42.136;24.742;2024-01-10T00:55:04;3.95;;;3.65;;
80229;SDS011;69540;42.136;24.742;2024-01-10T00:57:30;4.28;;;3.88;;
80229;SDS011;69540;42.136;24.742;2024-01-10T00:59:55;3.88;;;3.58;;
80229;SDS011;69540;42.136;24.742;2024-01-10T01:02:21;4.40;;;3.85;;
80229;SDS011;69540;42.136;24.742;2024-01-10T01:04:47;5.07;;;4.00;;
80229;SDS011;69540;42.136;24.742;2024-01-10T01:07:12;4.65;;;4.13;;
80229;SDS011;69540;42.136;24.742;2024-01-10T01:09:38;4.25;;;3.78;;
80229;SDS011;69540;42.136;24.742;2024-01-10T01:12:04;4.07;;;3.67;;
80229;SDS011;69540;42.136;24.742;2024-01-10T01:14:29;4.63;;;4.07;;
80229;SDS011;69540;42.136;24.742;2024-01-10T01:16:55;4.38;;;3.97;;
80229;SDS011;69540;42.136;24.742;2024-01-10T01:19:20;3.97;;;3.60;;
80229;SDS011;69540;42.136;24.742;2024-01-10T01:21:46;4.15;;;3.75;;
80229;SDS011;69540;42.136;24.742;2024-01-10T01:24:12;3.90;;;3.60;;
80229;SDS011;69540;42.136;24.742;2024-01-10T01:26:37;4.20;;;3.80;;
80229;SDS011;69540;42.136;24.742;2024-01-10T01:29:03;4.10;;;3.70;;
80229;SDS011;69540;42.136;24.742;2024-01-10T01:31:29;4.20;;;3.80;;
80229;SDS011;69540;42.136;24.742;2024-01-10T01:33:55;4.57;;;4.13;;
80229;SDS011;69540;42.136;24.742;2024-01-10T01:36:20;3.92;;;3.53;;
80229;SDS011;69540;42.136;24.742;2024-01-10T01:38:46;4.45;;;3.90;;
80229;SDS011;69540;42.136;24.742;2024-01-10T01:41:12;3.97;;;3.60;;
80229;SDS011;69540;42.136;24.742;2024-01-10T01:43:40;4.65;;;3.80;;
80229;SDS011;69540;42.136;24.742;2024-01-10T01:46:05;4.13;;;3.72;;
80229;SDS011;69540;42.136;24.742;2024-01-10T01:48:32;5.55;;;3.72;;
80229;SDS011;69540;42.136;24.742;2024-01-10T01:51:00;3.92;;;3.50;;
80229;SDS011;69540;42.136;24.742;2024-01-10T01:53:28;4.25;;;3.85;;
80229;SDS011;69540;42.136;24.742;2024-01-10T01:55:54;3.85;;;3.55;;
80229;SDS011;69540;42.136;24.742;2024-01-10T01:58:22;4.07;;;3.65;;
80229;SDS011;69540;42.136;24.742;2024-01-10T02:00:48;4.05;;;3.65;;
80229;SDS011;69540;42.136;24.742;2024-01-10T02:03:15;4.40;;;4.00;;
80229;SDS011;69540;42.136;24.742;2024-01-10T02:05:40;3.95;;;3.60;;
80229;SDS011;69540;42.136;24.742;2024-01-10T02:08:06;4.10;;;3.70;;
80229;SDS011;69540;42.136;24.742;2024-01-10T02:10:33;4.15;;;3.83;;
80229;SDS011;69540;42.136;24.742;2024-01-10T02:12:59;3.85;;;3.55;;
80229;SDS011;69540;42.136;24.742;2024-01-10T02:15:25;3.60;;;3.30;;
80229;SDS011;69540;42.136;24.742;2024-01-10T02:17:51;4.07;;;3.58;;
80229;SDS011;69540;42.136;24.742;2024-01-10T02:20:17;5.38;;;3.70;;
80229;SDS011;69540;42.136;24.742;2024-01-10T02:22:43;3.72;;;3.42;;
80229;SDS011;69540;42.136;24.742;2024-01-10T02:25:09;3.60;;;3.30;;
80229;SDS011;69540;42.136;24.742;2024-01-10T02:27:36;4.10;;;3.75;;
80229;SDS011;69540;42.136;24.742;2024-01-10T02:30:03;3.83;;;3.50;;
80229;SDS011;69540;42.136;24.742;2024-01-10T02:32:30;3.60;;;3.30;;
80229;SDS011;69540;42.136;24.742;2024-01-10T02:34:56;4.20;;;3.58;;
80229;SDS011;69540;42.136;24.742;2024-01-10T02:37:22;3.85;;;3.55;;
80229;SDS011;69540;42.136;24.742;2024-01-10T02:39:47;3.80;;;3.50;;
80229;SDS011;69540;42.136;24.742;2024-01-10T02:42:13;4.10;;;3.70;;
80229;SDS011;69540;42.136;24.742;2024-01-10T02:44:39;4.00;;;3.60;;
80229;SDS011;69540;42.136;24.742;2024-01-10T02:47:05;3.72;;;3.42;;
80229;SDS011;69540;42.136;24.742;2024-01-10T02:49:33;4.15;;;3.75;;
80229;SDS011;69540;42.136;24.742;2024-01-10T02:51:59;4.55;;;3.50;;
80229;SDS011;69540;42.136;24.742;2024-01-10T02:54:25;4.05;;;3.75;;
80229;SDS011;69540;42.136;24.742;2024-01-10T02:56:51;3.67;;;3.38;;
80229;SDS011;69540;42.136;24.742;2024-01-10T02:59:16;4.07;;;3.63;;
80229;SDS011;69540;42.136;24.742;2024-01-10T03:01:42;3.92;;;3.55;;
80229;SDS011;69540;42.136;24.742;2024-01-10T03:04:08;4.10;;;3.70;;
80229;SDS011;69540;42.136;24.742;2024-01-10T03:06:34;4.10;;;3.70;;
80229;SDS011;69540;42.136;24.742;2024-01-10T03:08:59;3.85;;;3.55;;
80229;SDS011;69540;42.136;24.742;2024-01-10T03:11:25;3.80;;;3.50;;
80229;SDS011;69540;42.136;24.742;2024-01-10T03:13:53;3.85;;;3.47;;
80229;SDS011;69540;42.136;24.742;2024-01-10T03:16:27;3.65;;;3.35;;
80229;SDS011;69540;42.136;24.742;2024-01-10T03:18:52;3.78;;;3.47;;
80229;SDS011;69540;42.136;24.742;2024-01-10T03:21:18;3.83;;;3.53;;
80229;SDS011;69540;42.136;24.742;2024-01-10T03:23:56;4.00;;;3.67;;
80229;SDS011;69540;42.136;24.742;2024-01-10T03:26:25;4.07;;;3.40;;
80229;SDS011;69540;42.136;24.742;2024-01-10T03:28:51;4.00;;;3.60;;
80229;SDS011;69540;42.136;24.742;2024-01-10T03:31:18;3.60;;;3.30;;
80229;SDS011;69540;42.136;24.742;2024-01-10T03:33:44;3.83;;;3.45;;
80229;SDS011;69540;42.136;24.742;2024-01-10T03:36:13;3.35;;;3.05;;
80229;SDS011;69540;42.136;24.742;2024-01-10T03:38:40;3.63;;;3.35;;
80229;SDS011;69540;42.136;24.742;2024-01-10T03:41:06;3.80;;;3.38;;
80229;SDS011;69540;42.136;24.742;2024-01-10T03:43:32;3.60;;;3.30;;
80229;SDS011;69540;42.136;24.742;2024-01-10T03:45:58;3.60;;;3.30;;
80229;SDS011;69540;42.136;24.742;2024-01-10T03:48:24;3.53;;;3.22;;
80229;SDS011;69540;42.136;24.742;2024-01-10T03:50:49;4.13;;;3.72;;
80229;SDS011;69540;42.136;24.742;2024-01-10T03:53:15;3.72;;;3.33;;
80229;SDS011;69540;42.136;24.742;2024-01-10T03:55:41;3.60;;;3.30;;
80229;SDS011;69540;42.136;24.742;2024-01-10T03:58:07;3.95;;;3.65;;
80229;SDS011;69540;42.136;24.742;2024-01-10T04:00:32;3.90;;;3.50;;
80229;SDS011;69540;42.136;24.742;2024-01-10T04:02:58;3.42;;;3.13;;
80229;SDS011;69540;42.136;24.742;2024-01-10T04:05:24;3.90;;;3.60;;
80229;SDS011;69540;42.136;24.742;2024-01-10T04:07:50;3.70;;;3.40;;
80229;SDS011;69540;42.136;24.742;2024-01-10T04:10:17;3.53;;;3.25;;
80229;SDS011;69540;42.136;24.742;2024-01-10T04:12:43;3.47;;;3.17;;
80229;SDS011;69540;42.136;24.742;2024-01-10T04:15:09;3.67;;;3.38;;
80229;SDS011;69540;42.136;24.742;2024-01-10T04:17:36;3.75;;;3.45;;
80229;SDS011;69540;42.136;24.742;2024-01-10T04:20:02;3.90;;;3.40;;
80229;SDS011;69540;42.136;24.742;2024-01-10T04:22:29;3.60;;;3.30;;
80229;SDS011;69540;42.136;24.742;2024-01-10T04:24:57;3.50;;;3.20;;
80229;SDS011;69540;42.136;24.742;2024-01-10T04:27:23;3.70;;;3.40;;
80229;SDS011;69540;42.136;24.742;2024-01-10T04:29:48;3.65;;;3.35;;
80229;SDS011;69540;42.136;24.742;2024-01-10T04:32:14;3.50;;;3.20;;
80229;SDS011;69540;42.136;24.742;2024-01-10T04:34:40;3.60;;;3.30;;
80229;SDS011;69540;42.136;24.742;2024-01-10T04:37:05;3.85;;;3.30;;
80229;SDS011;69540;42.136;24.742;2024-01-10T04:39:33;3.88;;;3.58;;
80229;SDS011;69540;42.136;24.742;2024-01-10T04:41:59;3.47;;;3.17;;
80229;SDS011;69540;42.136;24.742;2024-01-10T04:44:25;4.20;;;3.80;;
80229;SDS011;69540;42.136;24.742;2024-01-10T04:46:51;4.53;;;3.92;;
80229;SDS011;69540;42.136;24.742;2024-01-10T04:49:17;7.43;;;6.72;;
80229;SDS011;69540;42.136;24.742;2024-01-10T04:51:42;8.32;;;7.35;;
80229;SDS011;69540;42.136;24.742;2024-01-10T04:54:08;9.50;;;7.72;;
80229;SDS011;69540;42.136;24.742;2024-01-10T04:56:34;8.82;;;7.93;;
80229;SDS011;69540;42.136;24.742;2024-01-10T04:59:02;12.32;;;7.88;;
80229;SDS011;69540;42.136;24.742;2024-01-10T05:01:28;9.60;;;7.97;;
80229;SDS011;69540;42.136;24.742;2024-01-10T05:03:54;9.32;;;7.70;;
80229;SDS011;69540;42.136;24.742;2024-01-10T05:06:19;9.95;;;7.88;;
80229;SDS011;69540;42.136;24.742;2024-01-10T05:08:45;9.45;;;7.53;;
80229;SDS011;69540;42.136;24.742;2024-01-10T05:11:11;10.07;;;7.70;;
80229;SDS011;69540;42.136;24.742;2024-01-10T05:13:38;9.07;;;8.10;;
80229;SDS011;69540;42.136;24.742;2024-01-10T05:16:06;9.45;;;7.95;;
80229;SDS011;69540;42.136;24.742;2024-01-10T05:18:31;9.80;;;8.20;;
80229;SDS011;69540;42.136;24.742;2024-01-10T05:20:58;8.95;;;7.70;;
80229;SDS011;69540;42.136;24.742;2024-01-10T05:23:24;9.98;;;8.15;;
80229;SDS011;69540;42.136;24.742;2024-01-10T05:25:50;10.00;;;8.45;;
80229;SDS011;69540;42.136;24.742;2024-01-10T05:28:15;11.68;;;8.13;;
80229;SDS011;69540;42.136;24.742;2024-01-10T05:30:41;10.52;;;9.13;;
80229;SDS011;69540;42.136;24.742;2024-01-10T05:33:10;10.00;;;8.60;;
80229;SDS011;69540;42.136;24.742;2024-01-10T05:35:36;9.68;;;8.48;;
80229;SDS011;69540;42.136;24.742;2024-01-10T05:38:03;10.10;;;8.40;;
80229;SDS011;69540;42.136;24.742;2024-01-10T05:40:29;10.70;;;8.52;;
80229;SDS011;69540;42.136;24.742;2024-01-10T05:42:58;13.52;;;9.13;;
80229;SDS011;69540;42.136;24.742;2024-01-10T05:45:27;12.90;;;9.43;;
80229;SDS011;69540;42.136;24.742;2024-01-10T05:47:53;11.73;;;9.43;;
80229;SDS011;69540;42.136;24.742;2024-01-10T05:50:19;14.13;;;10.38;;
80229;SDS011;69540;42.136;24.742;2024-01-10T05:52:45;13.70;;;10.45;;
80229;SDS011;69540;42.136;24.742;2024-01-10T05:55:11;11.27;;;9.90;;
80229;SDS011;69540;42.136;24.742;2024-01-10T05:57:37;12.02;;;10.05;;
80229;SDS011;69540;42.136;24.742;2024-01-10T06:00:03;12.15;;;9.88;;
80229;SDS011;69540;42.136;24.742;2024-01-10T06:02:34;10.73;;;8.60;;
80229;SDS011;69540;42.136;24.742;2024-01-10T06:05:03;10.90;;;8.23;;
80229;SDS011;69540;42.136;24.742;2024-01-10T06:07:33;10.25;;;7.15;;
80229;SDS011;69540;42.136;24.742;2024-01-10T06:09:59;9.05;;;7.30;;
80229;SDS011;69540;42.136;24.742;2024-01-10T06:12:26;8.73;;;6.65;;
80229;SDS011;69540;42.136;24.742;2024-01-10T06:14:53;11.27;;;6.45;;
80229;SDS011;69540;42.136;24.742;2024-01-10T06:17:19;8.15;;;6.85;;
80229;SDS011;69540;42.136;24.742;2024-01-10T06:19:45;8.07;;;6.63;;
80229;SDS011;69540;42.136;24.742;2024-01-10T06:22:10;9.70;;;6.30;;
80229;SDS011;69540;42.136;24.742;2024-01-10T06:24:37;6.50;;;5.80;;
80229;SDS011;69540;42.136;24.742;2024-01-10T06:27:03;8.00;;;6.15;;
80229;SDS011;69540;42.136;24.742;2024-01-10T06:29:30;8.75;;;6.07;;
80229;SDS011;69540;42.136;24.742;2024-01-10T06:31:56;7.63;;;6.35;;
80229;SDS011;69540;42.136;24.742;2024-01-10T06:34:22;9.43;;;6.07;;
80229;SDS011;69540;42.136;24.742;2024-01-10T06:36:48;8.30;;;6.00;;
80229;SDS011;69540;42.136;24.742;2024-01-10T06:39:14;7.43;;;5.72;;
80229;SDS011;69540;42.136;24.742;2024-01-10T06:41:41;6.93;;;6.13;;
80229;SDS011;69540;42.136;24.742;2024-01-10T06:44:07;8.15;;;5.30;;
80229;SDS011;69540;42.136;24.742;2024-01-10T06:46:34;6.63;;;5.47;;
80229;SDS011;69540;42.136;24.742;2024-01-10T06:49:00;6.63;;;5.90;;
80229;SDS011;69540;42.136;24.742;2024-01-10T06:51:26;6.68;;;5.25;;
80229;SDS011;69540;42.136;24.742;2024-01-10T06:53:52;6.38;;;5.78;;
80229;SDS011;69540;42.136;24.742;2024-01-10T06:56:18;8.65;;;5.72;;
80229;SDS011;69540;42.136;24.742;2024-01-10T06:58:44;8.20;;;5.63;;
80229;SDS011;69540;42.136;24.742;2024-01-10T07:01:13;6.50;;;5.47;;
80229;SDS011;69540;42.136;24.742;2024-01-10T07:03:39;6.13;;;5.35;;
80229;SDS011;69540;42.136;24.742;2024-01-10T07:06:05;6.65;;;5.47;;
80229;SDS011;69540;42.136;24.742;2024-01-10T07:08:31;6.20;;;5.13;;
80229;SDS011;69540;42.136;24.742;2024-01-10T07:10:56;5.25;;;4.78;;
80229;SDS011;69540;42.136;24.742;2024-01-10T07:13:22;7.22;;;5.57;;
80229;SDS011;69540;42.136;24.742;2024-01-10T07:15:48;6.00;;;5.47;;
80229;SDS011;69540;42.136;24.742;2024-01-10T07:18:16;6.60;;;5.63;;
80229;SDS011;69540;42.136;24.742;2024-01-10T07:20:42;5.55;;;4.95;;
80229;SDS011;69540;42.136;24.742;2024-01-10T07:23:07;8.98;;;5.13;;
80229;SDS011;69540;42.136;24.742;2024-01-10T07:25:33;7.57;;;5.05;;
80229;SDS011;69540;42.136;24.742;2024-01-10T07:27:59;6.85;;;4.60;;
80229;SDS011;69540;42.136;24.742;2024-01-10T07:30:26;9.25;;;4.68;;
80229;SDS011;69540;42.136;24.742;2024-01-10T07:32:52;5.10;;;4.60;;
80229;SDS011;69540;42.136;24.742;2024-01-10T07:35:17;7.93;;;4.82;;
80229;SDS011;69540;42.136;24.742;2024-01-10T07:37:43;7.40;;;4.85;;
80229;SDS011;69540;42.136;24.742;2024-01-10T07:40:09;5.82;;;4.57;;
80229;SDS011;69540;42.136;24.742;2024-01-10T07:42:38;5.75;;;4.93;;
80229;SDS011;69540;42.136;24.742;2024-01-10T07:45:07;4.63;;;4.15;;
80229;SDS011;69540;42.136;24.742;2024-01-10T07:47:33;5.22;;;4.72;;
80229;SDS011;69540;42.136;24.742;2024-01-10T07:50:04;5.63;;;4.88;;
80229;SDS011;69540;42.136;24.742;2024-01-10T07:52:29;4.93;;;4.38;;
80229;SDS011;69540;42.136;24.742;2024-01-10T07:54:55;6.93;;;5.20;;
80229;SDS011;69540;42.136;24.742;2024-01-10T07:57:22;5.47;;;4.57;;
80229;SDS011;69540;42.136;24.742;2024-01-10T07:59:47;6.22;;;4.40;;
80229;SDS011;69540;42.136;24.742;2024-01-10T08:02:13;6.63;;;4.70;;
80229;SDS011;69540;42.136;24.742;2024-01-10T08:04:38;6.05;;;4.80;;
80229;SDS011;69540;42.136;24.742;2024-01-10T08:07:04;4.90;;;4.40;;
80229;SDS011;69540;42.136;24.742;2024-01-10T08:09:30;5.07;;;4.57;;
80229;SDS011;69540;42.136;24.742;2024-01-10T08:11:55;5.40;;;4.53;;
80229;SDS011;69540;42.136;24.742;2024-01-10T08:14:21;6.25;;;4.50;;
80229;SDS011;69540;42.136;24.742;2024-01-10T08:16:47;4.93;;;4.50;;
80229;SDS011;69540;42.136;24.742;2024-01-10T08:19:12;5.70;;;4.47;;
80229;SDS011;69540;42.136;24.742;2024-01-10T08:21:38;5.45;;;4.63;;
80229;SDS011;69540;42.136;24.742;2024-01-10T08:24:04;4.90;;;4.40;;
80229;SDS011;69540;42.136;24.742;2024-01-10T08:26:32;6.28;;;4.38;;
80229;SDS011;69540;42.136;24.742;2024-01-10T08:28:57;5.60;;;4.60;;
80229;SDS011;69540;42.136;24.742;2024-01-10T08:31:23;4.80;;;4.40;;
80229;SDS011;69540;42.136;24.742;2024-01-10T08:33:49;4.90;;;4.40;;
80229;SDS011;69540;42.136;24.742;2024-01-10T08:36:14;5.90;;;4.88;;
80229;SDS011;69540;42.136;24.742;2024-01-10T08:38:41;5.50;;;4.90;;
80229;SDS011;69540;42.136;24.742;2024-01-10T08:41:07;7.97;;;6.93;;
80229;SDS011;69540;42.136;24.742;2024-01-10T08:43:38;8.95;;;6.68;;
80229;SDS011;69540;42.136;24.742;2024-01-10T08:46:03;6.75;;;5.82;;
80229;SDS011;69540;42.136;24.742;2024-01-10T08:48:29;7.22;;;5.38;;
80229;SDS011;69540;42.136;24.742;2024-01-10T08:50:55;11.43;;;5.45;;
80229;SDS011;69540;42.136;24.742;2024-01-10T08:53:21;6.38;;;5.10;;
80229;SDS011;69540;42.136;24.742;2024-01-10T08:55:47;7.80;;;5.00;;
80229;SDS011;69540;42.136;24.742;2024-01-10T08:58:13;7.10;;;4.85;;
80229;SDS011;69540;42.136;24.742;2024-01-10T09:00:39;6.55;;;5.07;;
80229;SDS011;69540;42.136;24.742;2024-01-10T09:29:44;6.50;;;4.85;;
80229;SDS011;69540;42.136;24.742;2024-01-10T09:32:10;5.82;;;5.03;;
80229;SDS011;69540;42.136;24.742;2024-01-10T09:34:35;7.45;;;4.78;;
80229;SDS011;69540;42.136;24.742;2024-01-10T09:37:02;5.57;;;4.60;;
80229;SDS011;69540;42.136;24.742;2024-01-10T09:39:30;5.78;;;5.18;;
80229;SDS011;69540;42.136;24.742;2024-01-10T09:41:56;7.07;;;5.00;;
80229;SDS011;69540;42.136;24.742;2024-01-10T09:44:23;6.38;;;4.78;;
80229;SDS011;69540;42.136;24.742;2024-01-10T09:46:52;5.20;;;4.70;;
80229;SDS011;69540;42.136;24.742;2024-01-10T09:49:20;5.03;;;4.50;;
80229;SDS011;69540;42.136;24.742;2024-01-10T09:51:49;5.25;;;4.72;;
80229;SDS011;69540;42.136;24.742;2024-01-10T09:54:15;5.10;;;4.60;;
80229;SDS011;69540;42.136;24.742;2024-01-10T09:56:41;5.30;;;4.80;;
80229;SDS011;69540;42.136;24.742;2024-01-10T09:59:07;5.40;;;4.65;;
80229;SDS011;69540;42.136;24.742;2024-01-10T10:01:36;5.10;;;4.60;;
80229;SDS011;69540;42.136;24.742;2024-01-10T10:04:04;5.03;;;4.53;;
80229;SDS011;69540;42.136;24.742;2024-01-10T10:06:32;5.30;;;4.65;;
80229;SDS011;69540;42.136;24.742;2024-01-10T10:08:59;6.22;;;4.32;;
80229;SDS011;69540;42.136;24.742;2024-01-10T10:11:25;5.00;;;4.50;;
80229;SDS011;69540;42.136;24.742;2024-01-10T10:13:51;5.75;;;4.20;;
80229;SDS011;69540;42.136;24.742;2024-01-10T10:16:24;6.10;;;4.47;;
80229;SDS011;69540;42.136;24.742;2024-01-10T10:18:53;4.82;;;4.35;;
80229;SDS011;69540;42.136;24.742;2024-01-10T10:21:23;5.28;;;4.78;;
80229;SDS011;69540;42.136;24.742;2024-01-10T10:24:00;4.93;;;4.40;;
80229;SDS011;69540;42.136;24.742;2024-01-10T10:26:27;7.93;;;4.53;;
80229;SDS011;69540;42.136;24.742;2024-01-10T10:28:54;5.13;;;4.63;;
80229;SDS011;69540;42.136;24.742;2024-01-10T10:31:21;4.70;;;4.10;;
80229;SDS011;69540;42.136;24.742;2024-01-10T10:33:48;4.47;;;4.07;;
80229;SDS011;69540;42.136;24.742;2024-01-10T10:36:18;5.82;;;4.18;;
80229;SDS011;69540;42.136;24.742;2024-01-10T10:38:45;4.95;;;4.45;;
80229;SDS011;69540;42.136;24.742;2024-01-10T10:41:12;4.50;;;4.10;;
80229;SDS011;69540;42.136;24.742;2024-01-10T10:43:39;4.45;;;4.03;;
80229;SDS011;69540;42.136;24.742;2024-01-10T10:46:06;6.75;;;3.95;;
80229;SDS011;69540;42.136;24.742;2024-01-10T10:48:42;4.70;;;4.20;;
80229;SDS011;69540;42.136;24.742;2024-01-10T10:51:11;4.65;;;4.10;;
80229;SDS011;69540;42.136;24.742;2024-01-10T10:53:42;4.15;;;3.78;;
80229;SDS011;69540;42.136;24.742;2024-01-10T10:56:10;4.57;;;4.18;;
80229;SDS011;69540;42.136;24.742;2024-01-10T10:58:41;4.32;;;3.97;;
80229;SDS011;69540;42.136;24.742;2024-01-10T11:01:08;4.68;;;4.13;;
80229;SDS011;69540;42.136;24.742;2024-01-10T11:03:38;4.63;;;3.65;;
80229;SDS011;69540;42.136;24.742;2024-01-10T11:06:05;3.70;;;3.40;;
80229;SDS011;69540;42.136;24.742;2024-01-10T11:08:34;5.85;;;3.75;;
80229;SDS011;69540;42.136;24.742;2024-01-10T11:11:00;3.85;;;3.45;;
80229;SDS011;69540;42.136;24.742;2024-01-10T11:13:45;6.20;;;3.50;;
80229;SDS011;69540;42.136;24.742;2024-01-10T11:19:03;6.18;;;3.50;;
80229;SDS011;69540;42.136;24.742;2024-01-10T11:24:53;3.80;;;3.45;;
80229;SDS011;69540;42.136;24.742;2024-01-10T11:27:20;3.78;;;3.47;;
80229;SDS011;69540;42.136;24.742;2024-01-10T11:29:46;7.10;;;3.75;;
80229;SDS011;69540;42.136;24.742;2024-01-10T11:32:15;7.97;;;4.25;;
80229;SDS011;69540;42.136;24.742;2024-01-10T11:37:20;7.25;;;3.92;;
80229;SDS011;69540;42.136;24.742;2024-01-10T11:39:46;6.35;;;4.03;;
80229;SDS011;69540;42.136;24.742;2024-01-10T11:42:11;5.35;;;3.47;;
80229;SDS011;69540;42.136;24.742;2024-01-10T11:44:47;4.65;;;3.70;;
80229;SDS011;69540;42.136;24.742;2024-01-10T11:47:17;3.85;;;3.45;;
80229;SDS011;69540;42.136;24.742;2024-01-10T11:49:53;4.15;;;3.47;;
80229;SDS011;69540;42.136;24.742;2024-01-10T11:52:21;4.70;;;3.47;;
80229;SDS011;69540;42.136;24.742;2024-01-10T11:54:48;4.50;;;3.33;;
80229;SDS011;69540;42.136;24.742;2024-01-10T11:59:48;6.50;;;3.80;;
80229;SDS011;69540;42.136;24.742;2024-01-10T12:02:16;5.50;;;3.70;;
80229;SDS011;69540;42.136;24.742;2024-01-10T12:04:42;4.25;;;3.42;;
80229;SDS011;69540;42.136;24.742;2024-01-10T12:07:08;4.43;;;3.30;;
80229;SDS011;69540;42.136;24.742;2024-01-10T12:09:34;4.03;;;3.35;;
80229;SDS011;69540;42.136;24.742;2024-01-10T12:12:01;3.83;;;3.38;;
80229;SDS011;69540;42.136;24.742;2024-01-10T12:14:29;4.38;;;3.50;;
80229;SDS011;69540;42.136;24.742;2024-01-10T12:16:56;5.30;;;3.60;;
80229;SDS011;69540;42.136;24.742;2024-01-10T12:19:22;4.20;;;3.75;;
80229;SDS011;69540;42.136;24.742;2024-01-10T12:21:50;3.60;;;3.25;;
80229;SDS011;69540;42.136;24.742;2024-01-10T12:24:17;6.35;;;3.20;;
80229;SDS011;69540;42.136;24.742;2024-01-10T12:26:46;4.35;;;3.28;;
80229;SDS011;69540;42.136;24.742;2024-01-10T12:29:13;4.97;;;3.10;;
80229;SDS011;69540;42.136;24.742;2024-01-10T12:31:42;7.22;;;3.40;;
80229;SDS011;69540;42.136;24.742;2024-01-10T12:34:10;4.13;;;3.30;;
80229;SDS011;69540;42.136;24.742;2024-01-10T12:36:36;3.78;;;3.40;;
80229;SDS011;69540;42.136;24.742;2024-01-10T12:39:03;3.60;;;3.30;;
80229;SDS011;69540;42.136;24.742;2024-01-10T12:41:31;4.88;;;3.42;;
80229;SDS011;69540;42.136;24.742;2024-01-10T12:43:58;4.35;;;3.50;;
80229;SDS011;69540;42.136;24.742;2024-01-10T12:46:27;4.22;;;3.45;;
80229;SDS011;69540;42.136;24.742;2024-01-10T12:49:03;6.63;;;3.15;;
80229;SDS011;69540;42.136;24.742;2024-01-10T12:51:30;3.85;;;3.03;;
80229;SDS011;69540;42.136;24.742;2024-01-10T12:53:57;4.22;;;3.40;;
80229;SDS011;69540;42.136;24.742;2024-01-10T12:56:23;4.50;;;3.38;;
80229;SDS011;69540;42.136;24.742;2024-01-10T12:58:50;3.42;;;3.10;;
80229;SDS011;69540;42.136;24.742;2024-01-10T13:01:15;8.15;;;3.40;;
80229;SDS011;69540;42.136;24.742;2024-01-10T13:03:41;3.35;;;3.05;;
80229;SDS011;69540;42.136;24.742;2024-01-10T13:06:08;3.45;;;3.15;;
80229;SDS011;69540;42.136;24.742;2024-01-10T13:08:34;4.03;;;3.10;;
80229;SDS011;69540;42.136;24.742;2024-01-10T13:11:01;5.82;;;3.40;;
80229;SDS011;69540;42.136;24.742;2024-01-10T13:13:33;4.90;;;3.25;;
80229;SDS011;69540;42.136;24.742;2024-01-10T13:15:59;3.47;;;3.17;;
80229;SDS011;69540;42.136;24.742;2024-01-10T13:18:25;3.40;;;3.10;;
80229;SDS011;69540;42.136;24.742;2024-01-10T13:20:53;4.97;;;3.05;;
80229;SDS011;69540;42.136;24.742;2024-01-10T13:23:19;3.88;;;3.15;;
80229;SDS011;69540;42.136;24.742;2024-01-10T13:25:47;6.05;;;3.42;;
80229;SDS011;69540;42.136;24.742;2024-01-10T13:28:13;3.70;;;3.13;;
80229;SDS011;69540;42.136;24.742;2024-01-10T13:30:39;4.88;;;3.28;;
80229;SDS011;69540;42.136;24.742;2024-01-10T13:33:11;4.43;;;3.88;;
80229;SDS011;69540;42.136;24.742;2024-01-10T13:35:37;4.50;;;3.03;;
80229;SDS011;69540;42.136;24.742;2024-01-10T13:38:03;6.57;;;3.40;;
80229;SDS011;69540;42.136;24.742;2024-01-10T13:40:30;5.25;;;2.97;;
80229;SDS011;69540;42.136;24.742;2024-01-10T13:42:57;3.80;;;3.30;;
80229;SDS011;69540;42.136;24.742;2024-01-10T13:45:23;5.45;;;3.08;;
80229;SDS011;69540;42.136;24.742;2024-01-10T13:47:48;3.60;;;2.97;;
80229;SDS011;69540;42.136;24.742;2024-01-10T13:50:14;3.90;;;3.30;;
80229;SDS011;69540;42.136;24.742;2024-01-10T13:52:41;3.78;;;3.17;;
80229;SDS011;69540;42.136;24.742;2024-01-10T13:55:07;3.22;;;2.92;;
80229;SDS011;69540;42.136;24.742;2024-01-10T13:57:34;3.67;;;3.28;;
80229;SDS011;69540;42.136;24.742;2024-01-10T14:00:00;3.35;;;3.05;;
80229;SDS011;69540;42.136;24.742;2024-01-10T14:02:27;4.28;;;3.20;;
80229;SDS011;69540;42.136;24.742;2024-01-10T14:04:54;5.20;;;3.25;;
80229;SDS011;69540;42.136;24.742;2024-01-10T14:07:19;4.55;;;3.10;;
80229;SDS011;69540;42.136;24.742;2024-01-10T14:09:45;4.45;;;3.13;;
80229;SDS011;69540;42.136;24.742;2024-01-10T14:12:12;3.70;;;3.22;;
80229;SDS011;69540;42.136;24.742;2024-01-10T14:14:38;3.63;;;3.33;;
80229;SDS011;69540;42.136;24.742;2024-01-10T14:17:05;4.55;;;3.13;;
80229;SDS011;69540;42.136;24.742;2024-01-10T14:19:31;4.32;;;3.63;;
80229;SDS011;69540;42.136;24.742;2024-01-10T14:21:57;3.70;;;3.40;;
80229;SDS011;69540;42.136;24.742;2024-01-10T14:24:23;3.72;;;3.30;;
80229;SDS011;69540;42.136;24.742;2024-01-10T14:26:49;5.38;;;3.50;;
80229;SDS011;69540;42.136;24.742;2024-01-10T14:29:15;6.28;;;3.60;;
80229;SDS011;69540;42.136;24.742;2024-01-10T14:31:41;4.20;;;3.40;;
80229;SDS011;69540;42.136;24.742;2024-01-10T14:34:06;4.10;;;3.65;;
80229;SDS011;69540;42.136;24.742;2024-01-10T14:36:32;5.13;;;3.33;;
80229;SDS011;69540;42.136;24.742;2024-01-10T14:38:59;4.90;;;3.20;;
80229;SDS011;69540;42.136;24.742;2024-01-10T14:41:24;5.90;;;3.80;;
